Time;durP1;ratioP1;P1;durP2;ratioP2;P2;SDS_P1;SDS_P2;PMS_P1;PMS_P2;Temp;Humidity;BMP_temperature;BMP_pressure;BME280_temperature;BME280_humidity;BME280_pressure;Samples;Min_cycle;Max_cycle;Signal;HPM_P1;HPM_P2
2022/04/06 00:00:09;;;;;;;2.80;2.60;;;10.40;99.90;;;;;;4955898;29;20604;-66
2022/04/06 00:02:39;;;;;;;5.88;3.35;;;10.40;99.90;;;;;;4973848;28;20176;-63
2022/04/06 00:05:09;;;;;;;3.67;3.35;;;10.40;99.90;;;;;;4974509;28;20295;-63
2022/04/06 00:07:39;;;;;;;3.45;3.15;;;10.40;99.90;;;;;;4975119;28;20620;-65
2022/04/06 00:10:07;;;;;;;4.13;3.72;;;10.40;99.90;;;;;;4975069;28;20168;-66
2022/04/06 00:12:34;;;;;;;3.85;3.13;;;10.40;99.90;;;;;;4975149;28;20175;-66
2022/04/06 00:15:00;;;;;;;2.95;2.65;;;10.40;99.90;;;;;;4974121;28;20199;-66
2022/04/06 00:17:26;;;;;;;4.90;4.50;;;10.40;99.90;;;;;;4974699;28;20196;-66
2022/04/06 00:19:52;;;;;;;2.97;2.78;;;10.40;99.90;;;;;;4974927;28;20194;-64
2022/04/06 00:22:17;;;;;;;4.20;3.63;;;10.40;99.90;;;;;;4974704;28;20172;-65
2022/04/06 00:24:43;;;;;;;2.80;2.57;;;10.50;99.90;;;;;;4974050;28;20191;-65
2022/04/06 00:27:09;;;;;;;3.83;3.30;;;10.50;99.90;;;;;;4974693;28;20179;-65
2022/04/06 00:29:34;;;;;;;3.50;3.20;;;10.50;99.90;;;;;;4973377;28;20171;-64
2022/04/06 00:32:00;;;;;;;3.10;2.90;;;10.50;99.90;;;;;;4974559;28;20226;-67
2022/04/06 00:37:10;;;;;;;3.50;3.20;;;10.40;99.90;;;;;;4975047;28;20191;-64
2022/04/06 00:39:36;;;;;;;2.60;2.40;;;10.40;99.90;;;;;;4974438;28;20184;-65
2022/04/06 00:42:01;;;;;;;3.13;2.63;;;10.40;99.90;;;;;;4974571;28;20203;-65
2022/04/06 00:44:28;;;;;;;3.70;3.40;;;10.50;99.90;;;;;;4974162;28;20179;-65
2022/04/06 00:46:54;;;;;;;2.60;2.40;;;10.50;99.90;;;;;;4974516;28;20853;-66
2022/04/06 00:49:20;;;;;;;2.75;2.55;;;10.50;99.90;;;;;;4974796;28;20172;-65
2022/04/06 00:51:47;;;;;;;2.83;2.70;;;10.50;99.90;;;;;;4974575;28;20222;-67
2022/04/06 00:54:15;;;;;;;2.75;2.55;;;10.50;99.90;;;;;;4973800;28;20423;-65
2022/04/06 00:56:42;;;;;;;3.65;2.97;;;10.50;99.90;;;;;;4974292;28;20196;-66
2022/04/06 00:59:09;;;;;;;3.08;2.83;;;10.50;99.90;;;;;;4973274;28;20231;-65
2022/04/06 01:01:35;;;;;;;2.90;2.67;;;10.50;99.90;;;;;;4974438;28;20563;-66
2022/04/06 01:04:01;;;;;;;5.03;3.93;;;10.50;99.90;;;;;;4974047;28;20169;-63
2022/04/06 01:06:26;;;;;;;3.37;3.07;;;10.50;99.90;;;;;;4973598;28;20455;-65
2022/04/06 01:08:52;;;;;;;2.23;2.10;;;10.50;99.90;;;;;;4974340;28;20446;-64
2022/04/06 01:11:19;;;;;;;3.33;3.03;;;10.50;99.90;;;;;;4974714;28;20627;-64
2022/04/06 01:13:45;;;;;;;3.05;2.75;;;10.50;99.90;;;;;;4973993;28;20542;-65
2022/04/06 01:16:11;;;;;;;2.30;2.20;;;10.50;99.90;;;;;;4977112;28;20210;-63
2022/04/06 01:18:37;;;;;;;4.20;2.40;;;10.60;99.90;;;;;;4978301;28;20259;-65
2022/04/06 01:21:03;;;;;;;2.13;2.00;;;10.50;99.90;;;;;;4976306;28;20646;-63
2022/04/06 01:23:30;;;;;;;2.72;2.53;;;10.50;99.90;;;;;;4977512;28;20639;-65
2022/04/06 01:25:56;;;;;;;2.58;2.28;;;10.50;99.90;;;;;;4977754;28;20262;-65
2022/04/06 01:28:21;;;;;;;3.13;2.70;;;10.50;99.90;;;;;;4977842;28;20176;-63
2022/04/06 01:30:47;;;;;;;2.97;2.77;;;10.50;99.90;;;;;;4977809;28;20169;-65
2022/04/06 01:33:13;;;;;;;2.47;2.35;;;10.50;99.90;;;;;;4977376;28;20175;-63
2022/04/06 01:35:41;;;;;;;2.87;2.33;;;10.50;99.90;;;;;;4977095;28;20220;-63
2022/04/06 01:38:06;;;;;;;2.72;2.25;;;10.60;99.90;;;;;;4977561;28;20191;-63
2022/04/06 01:40:33;;;;;;;3.60;3.30;;;10.60;99.90;;;;;;4977659;28;20180;-63
2022/04/06 01:42:58;;;;;;;3.20;2.92;;;10.60;99.90;;;;;;4977557;28;20184;-64
2022/04/06 01:45:24;;;;;;;2.87;2.67;;;10.60;99.90;;;;;;4977164;28;20615;-64
2022/04/06 01:47:50;;;;;;;2.77;2.57;;;10.60;99.90;;;;;;4977413;28;20814;-66
2022/04/06 01:53:00;;;;;;;2.75;2.10;;;10.60;99.90;;;;;;4977554;28;20183;-65
2022/04/06 01:55:26;;;;;;;4.47;3.00;;;10.60;99.90;;;;;;4976945;28;20188;-64
2022/04/06 01:57:51;;;;;;;3.50;2.77;;;10.60;99.90;;;;;;4977778;28;20176;-64
2022/04/06 02:00:18;;;;;;;3.70;2.63;;;10.50;99.90;;;;;;4977220;28;20411;-63
2022/04/06 02:02:47;;;;;;;3.97;2.78;;;10.60;99.90;;;;;;4976788;28;20184;-64
2022/04/06 02:05:14;;;;;;;3.10;2.85;;;10.50;99.90;;;;;;4976725;28;20246;-62
2022/04/06 02:07:39;;;;;;;2.45;2.25;;;10.60;99.90;;;;;;4977063;28;20176;-65
2022/04/06 02:10:05;;;;;;;3.10;2.90;;;10.50;99.90;;;;;;4977082;28;20219;-65
2022/04/06 02:12:31;;;;;;;3.45;3.25;;;10.60;99.90;;;;;;4977219;28;20545;-65
2022/04/06 02:14:57;;;;;;;2.65;2.45;;;10.60;99.90;;;;;;4976735;28;20242;-66
2022/04/06 02:17:25;;;;;;;3.60;2.93;;;10.50;99.90;;;;;;4976572;28;20188;-64
2022/04/06 02:19:51;;;;;;;2.97;2.67;;;10.50;99.90;;;;;;4977046;28;20447;-65
2022/04/06 02:22:18;;;;;;;3.17;2.83;;;10.50;99.90;;;;;;4977105;28;20631;-65
2022/04/06 02:24:44;;;;;;;3.20;3.00;;;10.50;99.90;;;;;;4976281;28;20188;-65
2022/04/06 02:27:09;;;;;;;2.70;2.50;;;10.50;99.90;;;;;;4975718;28;20210;-64
2022/04/06 02:29:37;;;;;;;4.00;2.90;;;10.50;99.90;;;;;;4976476;28;20208;-64
2022/04/06 02:32:04;;;;;;;3.45;3.03;;;10.50;99.90;;;;;;4976753;28;20168;-64
2022/04/06 02:34:29;;;;;;;3.00;2.80;;;10.50;99.90;;;;;;4976174;28;20559;-65
2022/04/06 02:36:55;;;;;;;3.47;3.20;;;10.50;99.90;;;;;;4976639;28;20184;-65
2022/04/06 02:39:21;;;;;;;4.60;3.40;;;10.50;99.90;;;;;;4976742;28;20184;-64
2022/04/06 02:41:46;;;;;;;3.40;3.10;;;10.50;99.90;;;;;;4976677;28;20254;-65
2022/04/06 02:44:12;;;;;;;3.20;3.00;;;10.50;99.90;;;;;;4975874;28;20309;-64
2022/04/06 02:46:38;;;;;;;2.90;2.73;;;10.40;99.90;;;;;;4976114;28;20700;-64
2022/04/06 02:49:04;;;;;;;3.37;3.07;;;10.40;99.90;;;;;;4976453;28;20647;-64
2022/04/06 02:51:30;;;;;;;3.25;2.95;;;10.40;99.90;;;;;;4976470;28;20203;-65
2022/04/06 02:53:56;;;;;;;2.70;2.50;;;10.40;99.90;;;;;;4976160;28;20200;-64
2022/04/06 02:56:21;;;;;;;3.63;3.40;;;10.40;99.90;;;;;;4976101;28;20200;-65
2022/04/06 02:58:47;;;;;;;3.80;2.70;;;10.40;99.90;;;;;;4956955;29;20181;-64
2022/04/06 03:01:12;;;;;;;2.90;2.70;;;10.40;99.90;;;;;;4956629;29;20177;-62
2022/04/06 03:03:38;;;;;;;2.67;2.47;;;10.40;99.90;;;;;;4956580;28;20204;-63
2022/04/06 03:06:05;;;;;;;3.37;3.07;;;10.50;99.90;;;;;;4956749;28;20239;-66
2022/04/06 03:08:30;;;;;;;4.63;3.85;;;10.50;99.90;;;;;;4956504;28;20267;-64
2022/04/06 03:10:57;;;;;;;4.03;3.10;;;10.50;99.90;;;;;;4956984;28;20259;-63
2022/04/06 03:13:23;;;;;;;3.70;3.30;;;10.50;99.90;;;;;;4956153;28;20176;-64
2022/04/06 03:15:49;;;;;;;3.17;2.87;;;10.50;99.90;;;;;;4956322;29;20195;-65
2022/04/06 03:18:14;;;;;;;3.70;3.20;;;10.50;99.90;;;;;;4956514;28;20247;-64
2022/04/06 03:20:40;;;;;;;3.30;2.40;;;10.40;99.90;;;;;;4956662;28;20188;-64
2022/04/06 03:23:06;;;;;;;2.80;2.60;;;10.40;99.90;;;;;;4956049;28;20176;-65
2022/04/06 03:25:31;;;;;;;3.20;3.00;;;10.40;99.90;;;;;;4966697;28;20208;-63
2022/04/06 03:27:57;;;;;;;3.40;3.10;;;10.40;99.90;;;;;;4975624;28;20298;-65
2022/04/06 03:30:23;;;;;;;3.60;3.23;;;10.40;99.90;;;;;;4975418;28;20176;-63
2022/04/06 03:32:49;;;;;;;3.65;2.72;;;10.40;99.90;;;;;;4975578;28;20176;-65
2022/04/06 03:35:14;;;;;;;2.73;2.53;;;10.30;99.90;;;;;;4975022;28;20265;-65
2022/04/06 03:37:40;;;;;;;2.73;2.53;;;10.30;99.90;;;;;;4975103;28;20187;-65
2022/04/06 03:40:07;;;;;;;2.87;2.67;;;10.30;99.90;;;;;;4974928;28;20648;-64
2022/04/06 03:42:33;;;;;;;2.70;2.50;;;10.30;99.90;;;;;;4975433;28;20168;-64
2022/04/06 03:45:00;;;;;;;2.50;2.30;;;10.30;99.90;;;;;;4974715;28;20211;-64
2022/04/06 03:47:33;;;;;;;2.72;2.53;;;10.30;99.90;;;;;;4975242;28;20218;-64
2022/04/06 03:50:02;;;;;;;3.58;3.22;;;10.30;99.90;;;;;;4975273;28;20199;-66
2022/04/06 03:52:28;;;;;;;4.00;3.60;;;10.30;99.90;;;;;;4975170;28;20168;-64
2022/04/06 03:54:53;;;;;;;2.87;2.60;;;10.30;99.90;;;;;;4974381;28;20202;-64
2022/04/06 03:57:20;;;;;;;2.43;2.23;;;10.30;99.90;;;;;;4975225;28;20180;-65
2022/04/06 03:59:45;;;;;;;4.90;3.75;;;10.30;99.90;;;;;;4974889;28;20411;-65
2022/04/06 04:02:11;;;;;;;2.97;2.70;;;10.40;99.90;;;;;;4975159;28;20179;-63
2022/04/06 04:04:37;;;;;;;2.63;2.43;;;10.30;99.90;;;;;;4974648;28;20523;-64
2022/04/06 04:07:03;;;;;;;3.10;2.73;;;10.40;99.90;;;;;;4974949;28;20507;-63
2022/04/06 04:09:29;;;;;;;4.07;2.93;;;10.40;99.90;;;;;;4974434;28;20263;-64
2022/04/06 04:11:56;;;;;;;3.05;2.75;;;10.30;99.90;;;;;;4974535;28;20502;-64
2022/04/06 04:14:23;;;;;;;3.95;2.45;;;10.30;99.90;;;;;;4974329;28;20168;-63
2022/04/06 04:16:49;;;;;;;2.85;2.65;;;10.30;99.90;;;;;;4974784;28;20200;-64
2022/04/06 04:19:16;;;;;;;2.97;2.77;;;10.40;99.90;;;;;;4974724;28;20198;-65
2022/04/06 04:21:42;;;;;;;3.50;3.20;;;10.30;99.90;;;;;;4974620;28;20911;-64
2022/04/06 04:24:10;;;;;;;4.53;3.47;;;10.30;99.90;;;;;;4974013;28;20547;-63
2022/04/06 04:26:38;;;;;;;3.05;2.85;;;10.30;99.90;;;;;;4974413;28;20203;-64
2022/04/06 04:29:05;;;;;;;3.25;2.95;;;10.30;99.90;;;;;;4974646;28;20175;-64
2022/04/06 04:31:31;;;;;;;4.20;3.30;;;10.30;99.90;;;;;;4974468;28;20536;-62
2022/04/06 04:33:57;;;;;;;3.38;3.08;;;10.30;99.90;;;;;;4974009;28;20242;-65
2022/04/06 04:36:23;;;;;;;3.05;2.78;;;10.40;99.90;;;;;;4974252;28;20741;-65
2022/04/06 04:38:49;;;;;;;2.90;2.63;;;10.30;99.90;;;;;;4974407;28;20191;-65
2022/04/06 04:41:17;;;;;;;4.93;3.22;;;10.30;99.90;;;;;;4974352;28;20631;-64
2022/04/06 04:43:42;;;;;;;2.90;2.70;;;10.30;99.90;;;;;;4974016;28;20179;-64
2022/04/06 04:46:09;;;;;;;3.67;3.37;;;10.40;99.90;;;;;;4974000;28;20215;-64
2022/04/06 04:48:34;;;;;;;10.63;3.45;;;10.30;99.90;;;;;;4974483;28;20178;-64
2022/04/06 04:51:00;;;;;;;3.20;3.00;;;10.30;99.90;;;;;;4977299;28;20175;-64
2022/04/06 04:53:26;;;;;;;3.35;3.05;;;10.30;99.90;;;;;;4978074;28;20172;-64
2022/04/06 04:55:53;;;;;;;3.80;3.47;;;10.30;99.90;;;;;;4977898;28;20204;-64
2022/04/06 04:58:19;;;;;;;2.50;2.30;;;10.30;99.90;;;;;;4978762;28;20427;-64
2022/04/06 05:00:46;;;;;;;4.75;4.20;;;10.30;99.90;;;;;;4977046;28;20183;-65
2022/04/06 05:03:12;;;;;;;3.50;3.10;;;10.30;99.90;;;;;;4977489;28;20194;-64
2022/04/06 05:05:40;;;;;;;2.00;1.90;;;10.30;99.90;;;;;;4977284;28;20737;-63
2022/04/06 05:08:06;;;;;;;2.50;2.30;;;10.30;99.90;;;;;;4976748;28;20435;-65
2022/04/06 05:10:32;;;;;;;2.40;2.30;;;10.40;99.90;;;;;;4977152;28;20184;-64
2022/04/06 05:12:58;;;;;;;2.60;2.50;;;10.40;99.90;;;;;;4977761;28;20230;-63
2022/04/06 05:15:24;;;;;;;4.10;3.70;;;10.40;99.90;;;;;;4976950;28;20196;-63
2022/04/06 05:17:49;;;;;;;3.80;2.97;;;10.40;99.90;;;;;;4977726;28;20177;-65
2022/04/06 05:20:15;;;;;;;2.97;2.73;;;10.40;99.90;;;;;;4977584;28;20180;-63
2022/04/06 05:22:41;;;;;;;4.00;3.60;;;10.40;99.90;;;;;;4977744;28;20635;-63
2022/04/06 05:25:08;;;;;;;3.60;3.30;;;10.40;99.90;;;;;;4977200;28;20458;-61
2022/04/06 05:27:55;;;;;;;3.70;3.40;;;10.40;99.90;;;;;;4977698;28;20179;-64
2022/04/06 05:30:26;;;;;;;2.60;2.15;;;10.50;99.90;;;;;;4977250;28;20203;-62
2022/04/06 05:32:55;;;;;;;3.15;2.90;;;10.40;99.90;;;;;;4977576;28;20164;-64
2022/04/06 05:35:21;;;;;;;3.22;2.88;;;10.50;99.90;;;;;;4977184;28;20218;-62
2022/04/06 05:37:47;;;;;;;2.90;2.70;;;10.50;99.90;;;;;;4976714;28;20550;-64
2022/04/06 05:40:15;;;;;;;3.03;2.83;;;10.50;99.90;;;;;;4976249;28;20180;-62
2022/04/06 05:42:41;;;;;;;4.32;3.90;;;10.50;99.90;;;;;;4977405;28;20184;-63
2022/04/06 05:45:08;;;;;;;3.90;3.60;;;10.60;99.90;;;;;;4976249;28;20210;-61
2022/04/06 05:47:35;;;;;;;4.07;3.00;;;10.60;99.90;;;;;;4976387;28;20177;-63
2022/04/06 05:50:02;;;;;;;3.90;3.60;;;10.60;99.90;;;;;;4976800;28;20184;-62
2022/04/06 05:52:28;;;;;;;4.63;3.72;;;10.60;99.90;;;;;;4977433;28;20207;-62
2022/04/06 05:54:54;;;;;;;4.50;4.10;;;10.60;99.90;;;;;;4976332;28;20223;-63
2022/04/06 05:57:20;;;;;;;4.55;3.25;;;10.60;99.90;;;;;;4976885;28;20183;-62
2022/04/06 05:59:46;;;;;;;4.47;4.07;;;10.70;99.90;;;;;;4977003;28;20259;-62
2022/04/06 06:02:13;;;;;;;4.67;4.17;;;10.70;99.90;;;;;;4976734;28;20379;-62
2022/04/06 06:04:39;;;;;;;4.28;3.80;;;10.70;99.90;;;;;;4976615;28;20415;-63
2022/04/06 06:07:05;;;;;;;4.72;3.22;;;10.70;99.90;;;;;;4977000;28;20202;-63
2022/04/06 06:09:32;;;;;;;5.03;4.55;;;10.80;99.90;;;;;;4976570;28;20176;-64
2022/04/06 06:11:58;;;;;;;3.58;3.25;;;10.80;99.90;;;;;;4974598;28;20180;-63
2022/04/06 06:14:24;;;;;;;3.47;2.95;;;10.90;99.90;;;;;;4974698;28;20188;-63
2022/04/06 06:16:50;;;;;;;5.57;4.20;;;11.00;99.90;;;;;;4976121;28;20575;-62
2022/04/06 06:19:16;;;;;;;4.10;3.13;;;11.00;99.90;;;;;;4975409;28;20200;-63
2022/04/06 06:21:42;;;;;;;4.43;4.13;;;11.10;99.90;;;;;;4976715;28;20195;-62
2022/04/06 06:24:07;;;;;;;12.00;3.67;;;11.10;99.90;;;;;;4976653;28;20540;-62
2022/04/06 06:26:34;;;;;;;3.80;3.50;;;11.20;99.90;;;;;;4975463;28;20212;-63
2022/04/06 06:29:00;;;;;;;4.00;3.70;;;11.30;99.90;;;;;;4974889;28;20203;-62
2022/04/06 06:31:28;;;;;;;3.17;2.97;;;11.20;99.90;;;;;;4976732;28;20623;-62
2022/04/06 06:33:54;;;;;;;3.78;3.47;;;11.20;99.90;;;;;;4975976;28;20172;-64
2022/04/06 06:36:20;;;;;;;9.15;4.10;;;11.30;99.90;;;;;;4975797;28;20212;-64
2022/04/06 06:38:45;;;;;;;4.07;3.50;;;11.30;99.90;;;;;;4976596;28;20176;-63
2022/04/06 06:41:11;;;;;;;4.13;3.80;;;11.40;99.90;;;;;;4976533;28;20176;-63
2022/04/06 06:43:36;;;;;;;4.23;3.83;;;11.40;99.90;;;;;;4975788;28;20671;-64
2022/04/06 06:46:02;;;;;;;3.60;3.30;;;11.40;99.90;;;;;;4976232;28;20227;-63
2022/04/06 06:48:28;;;;;;;5.30;4.00;;;11.50;99.90;;;;;;4976365;28;20169;-64
2022/04/06 06:50:53;;;;;;;3.90;3.60;;;11.50;99.90;;;;;;4975978;28;20309;-63
2022/04/06 06:53:19;;;;;;;4.53;3.33;;;11.60;99.90;;;;;;4975752;28;20173;-62
2022/04/06 06:55:45;;;;;;;4.23;3.27;;;11.60;99.90;;;;;;4976306;28;20201;-62
2022/04/06 06:58:10;;;;;;;3.93;3.60;;;11.70;99.90;;;;;;4975710;28;20214;-63
2022/04/06 07:00:36;;;;;;;4.50;3.40;;;11.80;99.90;;;;;;4975796;28;20181;-63
2022/04/06 07:03:02;;;;;;;4.07;3.70;;;11.80;99.90;;;;;;4975786;28;20231;-64
2022/04/06 07:05:28;;;;;;;4.80;2.70;;;11.90;99.90;;;;;;4975182;28;20212;-63
2022/04/06 07:08:00;;;;;;;3.87;3.50;;;11.90;99.90;;;;;;4974952;28;20185;-62
2022/04/06 07:10:27;;;;;;;4.37;2.43;;;12.10;99.90;;;;;;4975945;28;20789;-63
2022/04/06 07:12:53;;;;;;;3.23;2.83;;;12.10;99.90;;;;;;4974883;28;20422;-63
2022/04/06 07:15:19;;;;;;;3.80;3.27;;;12.20;99.90;;;;;;4974951;28;20848;-63
2022/04/06 07:17:51;;;;;;;5.07;3.60;;;12.20;99.90;;;;;;4975266;28;20428;-63
2022/04/06 07:20:16;;;;;;;5.30;3.10;;;12.30;99.90;;;;;;4975388;28;20763;-64
2022/04/06 07:22:42;;;;;;;3.10;2.90;;;12.30;99.90;;;;;;4975654;28;20451;-63
2022/04/06 07:25:08;;;;;;;3.40;3.10;;;12.40;99.90;;;;;;4975011;28;20209;-62
2022/04/06 07:27:37;;;;;;;3.20;2.90;;;12.40;99.90;;;;;;4975705;28;20173;-64
2022/04/06 07:30:05;;;;;;;2.92;2.72;;;12.50;99.90;;;;;;4975495;28;20182;-63
2022/04/06 07:32:31;;;;;;;2.97;2.67;;;12.60;99.90;;;;;;4975366;28;20187;-64
2022/04/06 07:34:57;;;;;;;2.10;2.00;;;12.70;99.90;;;;;;4975128;28;20500;-63
2022/04/06 07:37:22;;;;;;;2.97;2.70;;;12.80;99.90;;;;;;4975700;28;20457;-63
2022/04/06 07:39:48;;;;;;;3.30;2.23;;;12.90;99.90;;;;;;4975685;28;20195;-63
2022/04/06 07:42:13;;;;;;;2.87;2.67;;;13.00;99.90;;;;;;4975560;28;20175;-64
2022/04/06 07:44:40;;;;;;;2.03;1.93;;;13.20;99.90;;;;;;4975182;28;20179;-67
2022/04/06 07:47:05;;;;;;;2.60;2.10;;;13.30;99.90;;;;;;4974654;28;20546;-65
2022/04/06 07:49:31;;;;;;;1.60;1.50;;;13.40;99.90;;;;;;4975361;28;20403;-64
2022/04/06 07:51:56;;;;;;;2.70;1.77;;;13.40;99.90;;;;;;4975281;28;20171;-66
2022/04/06 07:54:22;;;;;;;1.83;1.50;;;13.50;99.90;;;;;;4975161;28;20270;-66
2022/04/06 07:56:48;;;;;;;1.80;1.70;;;13.60;99.90;;;;;;4975336;28;20670;-66
2022/04/06 07:59:13;;;;;;;2.90;2.03;;;13.80;99.90;;;;;;4974975;28;20256;-65
2022/04/06 08:01:39;;;;;;;1.50;1.40;;;13.90;99.90;;;;;;4975623;28;20705;-65
2022/04/06 08:04:05;;;;;;;2.23;2.03;;;14.00;99.90;;;;;;4975117;28;20179;-65
2022/04/06 08:06:30;;;;;;;1.40;1.40;;;14.00;99.90;;;;;;4975095;28;20223;-65
2022/04/06 08:08:56;;;;;;;12.17;1.60;;;14.00;99.90;;;;;;4975225;28;20168;-65
2022/04/06 08:11:21;;;;;;;1.47;1.37;;;14.20;99.90;;;;;;4975150;28;20168;-65
2022/04/06 08:13:48;;;;;;;1.93;1.70;;;14.40;99.90;;;;;;4974287;28;20183;-64
2022/04/06 08:16:13;;;;;;;1.60;1.50;;;14.60;99.90;;;;;;4974675;28;20198;-64
2022/04/06 08:18:39;;;;;;;1.90;1.60;;;14.80;99.90;;;;;;4974680;28;20772;-65
2022/04/06 08:21:09;;;;;;;2.67;2.07;;;15.20;99.90;;;;;;4974785;28;20172;-65
2022/04/06 08:23:35;;;;;;;1.73;1.63;;;15.40;99.90;;;;;;4974376;28;20545;-66
2022/04/06 08:26:01;;;;;;;1.93;1.70;;;15.70;99.90;;;;;;4974460;28;20496;-66
2022/04/06 08:28:27;;;;;;;1.13;1.13;;;15.90;99.90;;;;;;4974621;28;20488;-66
2022/04/06 08:30:52;;;;;;;0.90;0.90;;;16.10;99.90;;;;;;4974460;28;20417;-66
2022/04/06 08:33:18;;;;;;;0.90;0.90;;;16.30;99.90;;;;;;4974142;28;20173;-65
2022/04/06 08:35:44;;;;;;;0.80;0.80;;;16.30;99.90;;;;;;4974290;28;20210;-65
2022/04/06 08:38:15;;;;;;;0.80;0.70;;;16.50;99.90;;;;;;4974406;28;20179;-66
2022/04/06 08:40:43;;;;;;;1.00;1.00;;;16.60;99.90;;;;;;4974457;28;20590;-66
2022/04/06 08:43:10;;;;;;;0.80;0.80;;;16.80;99.70;;;;;;4974221;28;20416;-66
2022/04/06 08:45:39;;;;;;;0.83;0.83;;;17.00;99.70;;;;;;4974553;28;20463;-67
2022/04/06 08:48:10;;;;;;;1.23;1.13;;;17.10;98.80;;;;;;4974275;28;20407;-66
2022/04/06 08:50:37;;;;;;;1.20;1.13;;;16.90;98.60;;;;;;4974515;28;20375;-66
2022/04/06 08:53:05;;;;;;;1.10;1.00;;;16.60;98.80;;;;;;4973743;28;20940;-66
2022/04/06 08:55:34;;;;;;;1.40;1.30;;;16.30;98.20;;;;;;4974164;28;20444;-64
2022/04/06 08:58:01;;;;;;;1.07;1.07;;;16.10;99.40;;;;;;4974479;28;20414;-67
2022/04/06 09:00:27;;;;;;;1.17;1.17;;;15.90;99.10;;;;;;4974373;28;20413;-66
2022/04/06 09:02:53;;;;;;;0.87;0.87;;;15.70;99.80;;;;;;4974185;28;20427;-66
2022/04/06 09:05:23;;;;;;;1.07;1.00;;;15.60;99.80;;;;;;4973963;28;20547;-66
2022/04/06 09:07:51;;;;;;;0.83;0.83;;;15.50;99.30;;;;;;4973879;28;20753;-68
2022/04/06 09:10:28;;;;;;;1.40;1.30;;;15.40;99.90;;;;;;4974337;28;20819;-63
2022/04/06 09:13:20;;;;;;;4.03;1.10;;;15.50;99.90;;;;;;4974178;28;20468;-63
2022/04/06 09:15:46;;;;;;;1.63;1.53;;;15.60;99.90;;;;;;4973849;28;20451;-64
2022/04/06 09:18:12;;;;;;;1.30;1.17;;;15.60;99.90;;;;;;4974132;28;20422;-66
2022/04/06 09:20:38;;;;;;;1.33;1.23;;;15.50;99.90;;;;;;4974143;28;20413;-66
2022/04/06 09:23:05;;;;;;;1.00;0.90;;;15.20;99.90;;;;;;4973871;28;20416;-67
2022/04/06 09:25:38;;;;;;;3.53;1.10;;;15.00;99.90;;;;;;4973766;28;20992;-65
2022/04/06 09:28:14;;;;;;;0.90;0.90;;;15.00;99.90;;;;;;4974339;28;20402;-65
2022/04/06 09:30:42;;;;;;;0.90;0.90;;;14.90;99.90;;;;;;4973614;28;20786;-63
2022/04/06 09:33:16;;;;;;;1.70;1.60;;;14.90;99.90;;;;;;4973701;28;20835;-66
2022/04/06 09:35:43;;;;;;;0.97;0.97;;;15.00;99.90;;;;;;4974276;28;20462;-66
2022/04/06 09:38:08;;;;;;;1.10;1.03;;;15.00;99.90;;;;;;4976450;28;20945;-65
2022/04/06 09:40:34;;;;;;;0.70;0.70;;;15.10;99.90;;;;;;4976266;28;20419;-65
2022/04/06 09:42:59;;;;;;;0.60;0.60;;;15.30;99.90;;;;;;4977059;28;20188;-65
2022/04/06 09:48:32;;;;;;;0.50;0.50;;;15.70;99.90;;;;;;4994963;28;20600;-65
2022/04/06 09:50:58;;;;;;;1.00;1.00;;;16.30;99.90;;;;;;4992181;28;20432;-65
2022/04/06 09:53:27;;;;;;;1.17;1.07;;;16.70;99.90;;;;;;4966988;28;20188;-65
2022/04/06 09:55:54;;;;;;;1.03;0.50;;;17.10;99.80;;;;;;4957943;28;20200;-65
2022/04/06 09:58:22;;;;;;;0.63;0.63;;;17.50;98.50;;;;;;4958131;28;20421;-65
2022/04/06 10:00:48;;;;;;;0.60;0.60;;;17.50;98.10;;;;;;4957749;28;20420;-65
2022/04/06 10:03:15;;;;;;;0.63;0.53;;;17.50;97.90;;;;;;4957516;28;20427;-65
2022/04/06 10:05:42;;;;;;;0.70;0.47;;;17.40;97.50;;;;;;4960303;28;20975;-65
2022/04/06 10:08:09;;;;;;;0.40;0.30;;;17.40;95.40;;;;;;4977259;28;20418;-65
2022/04/06 10:10:40;;;;;;;0.63;0.40;;;17.30;94.90;;;;;;4977161;28;20423;-65
2022/04/06 10:13:07;;;;;;;1.00;0.70;;;17.20;94.60;;;;;;4976502;28;20466;-67
2022/04/06 10:15:35;;;;;;;0.40;0.40;;;17.00;95.20;;;;;;4976699;28;20428;-64
2022/04/06 10:18:02;;;;;;;0.40;0.40;;;17.10;95.10;;;;;;4976334;28;20415;-65
2022/04/06 10:20:37;;;;;;;0.60;0.30;;;17.30;94.50;;;;;;4975487;28;20426;-67
2022/04/06 10:23:13;;;;;;;0.43;0.43;;;17.50;95.00;;;;;;4976843;28;20508;-65
2022/04/06 10:25:47;;;;;;;0.90;0.90;;;17.70;94.20;;;;;;4976899;28;20498;-65
2022/04/06 10:28:14;;;;;;;0.37;0.37;;;17.90;93.10;;;;;;4976930;28;20402;-67
2022/04/06 10:30:39;;;;;;;0.80;0.60;;;17.80;93.30;;;;;;4976684;28;20492;-65
2022/04/06 10:33:20;;;;;;;1.07;0.60;;;17.70;94.10;;;;;;4976245;28;20433;-66
2022/04/06 10:35:46;;;;;;;0.40;0.40;;;17.80;93.60;;;;;;4976080;28;20215;-65
2022/04/06 10:38:11;;;;;;;0.30;0.30;;;17.80;93.70;;;;;;4976846;28;20404;-65
2022/04/06 10:40:42;;;;;;;0.63;0.63;;;17.90;93.20;;;;;;4976511;28;20359;-64
2022/04/06 10:43:36;;;;;;;0.40;0.40;;;18.30;93.50;;;;;;4976094;28;20176;-65
2022/04/06 10:46:09;;;;;;;0.40;0.40;;;18.40;93.20;;;;;;4976046;28;20988;-65
2022/04/06 10:48:54;;;;;;;0.47;0.47;;;18.50;92.20;;;;;;4974682;28;20430;-65
2022/04/06 10:51:29;;;;;;;0.50;0.30;;;18.90;91.40;;;;;;4975969;28;20427;-65
2022/04/06 10:53:55;;;;;;;0.60;0.60;;;19.40;91.20;;;;;;4975905;28;20406;-65
2022/04/06 10:56:22;;;;;;;0.40;0.40;;;20.00;91.10;;;;;;4976011;28;20451;-64
2022/04/06 10:58:56;;;;;;;0.67;0.40;;;20.40;90.10;;;;;;4976700;28;20179;-65
2022/04/06 11:01:35;;;;;;;0.40;0.40;;;21.10;88.10;;;;;;4975713;28;20411;-66
2022/04/06 11:04:06;;;;;;;0.50;0.50;;;21.30;85.40;;;;;;4956261;29;20511;-65
2022/04/06 11:06:40;;;;;;;0.40;0.40;;;21.10;86.60;;;;;;4956175;29;20853;-67
2022/04/06 11:12:22;;;;;;;0.67;0.50;;;21.40;85.60;;;;;;4975616;28;20405;-65
2022/04/06 11:14:57;;;;;;;0.70;0.70;;;21.60;85.10;;;;;;4972275;28;20424;-65
2022/04/06 11:17:32;;;;;;;0.40;0.30;;;21.40;83.60;;;;;;4975033;28;20415;-67
2022/04/06 11:20:22;;;;;;;0.30;0.30;;;21.20;82.90;;;;;;4975701;28;20494;-65
2022/04/06 11:22:53;;;;;;;0.43;0.43;;;21.00;84.60;;;;;;4974918;28;20410;-67
2022/04/06 11:25:20;;;;;;;0.50;0.40;;;20.80;82.20;;;;;;4975625;28;20430;-66
2022/04/06 11:27:47;;;;;;;0.40;0.40;;;20.60;84.70;;;;;;4975033;28;20502;-65
2022/04/06 11:30:21;;;;;;;0.60;0.40;;;20.50;85.10;;;;;;4974551;28;20510;-65
2022/04/06 11:32:55;;;;;;;0.40;0.37;;;20.30;84.80;;;;;;4974458;28;20430;-64
2022/04/06 11:35:27;;;;;;;0.30;0.30;;;20.20;85.00;;;;;;4972739;28;20433;-64
2022/04/06 11:37:52;;;;;;;0.53;0.53;;;20.00;85.30;;;;;;4974696;28;20834;-64
2022/04/06 11:40:20;;;;;;;0.50;0.43;;;19.80;87.70;;;;;;4975108;28;20444;-64
2022/04/06 11:42:48;;;;;;;0.77;0.47;;;19.60;87.80;;;;;;4975050;28;20608;-65
2022/04/06 11:45:44;;;;;;;0.60;0.60;;;19.50;88.40;;;;;;4974544;28;20504;-64
2022/04/06 11:48:15;;;;;;;0.70;0.70;;;19.40;88.50;;;;;;4974623;28;20423;-64
2022/04/06 11:50:43;;;;;;;0.40;0.40;;;19.50;87.30;;;;;;4972995;28;20404;-66
2022/04/06 11:53:15;;;;;;;0.60;0.57;;;19.50;86.20;;;;;;4974752;28;20896;-66
2022/04/06 11:55:48;;;;;;;1.37;1.07;;;19.40;86.20;;;;;;4974969;28;20494;-65
2022/04/06 11:58:34;;;;;;;0.50;0.50;;;19.20;87.00;;;;;;4974776;28;20930;-65
2022/04/06 12:01:06;;;;;;;0.40;0.40;;;19.10;86.60;;;;;;4974961;28;20386;-65
2022/04/06 12:03:37;;;;;;;0.60;0.60;;;18.90;84.80;;;;;;4974520;28;20398;-66
2022/04/06 12:06:05;;;;;;;2.43;0.80;;;18.80;88.30;;;;;;4973639;28;20487;-66
2022/04/06 12:08:34;;;;;;;0.30;0.30;;;18.80;87.60;;;;;;4975066;28;20424;-67
2022/04/06 12:11:00;;;;;;;0.50;0.50;;;18.80;86.60;;;;;;4974734;28;20474;-65
2022/04/06 12:13:29;;;;;;;1.47;0.40;;;18.90;87.90;;;;;;4974112;28;20933;-67
2022/04/06 12:15:56;;;;;;;0.60;0.50;;;19.10;90.00;;;;;;4974591;28;20446;-67
2022/04/06 12:18:23;;;;;;;0.63;0.50;;;19.30;88.70;;;;;;4974764;28;20456;-63
2022/04/06 12:20:50;;;;;;;0.40;0.40;;;19.50;87.70;;;;;;4974188;28;20405;-64
2022/04/06 12:23:17;;;;;;;0.47;0.47;;;19.50;87.00;;;;;;4972338;28;20408;-66
2022/04/06 12:25:43;;;;;;;0.50;0.50;;;19.60;86.40;;;;;;4973444;28;20971;-66
2022/04/06 12:28:09;;;;;;;0.60;0.60;;;19.60;87.70;;;;;;4974560;28;20906;-64
2022/04/06 12:30:34;;;;;;;0.90;0.90;;;19.70;87.00;;;;;;4974473;28;20487;-65
2022/04/06 12:33:00;;;;;;;0.67;0.67;;;19.80;87.30;;;;;;4974423;28;20640;-65
2022/04/06 12:35:26;;;;;;;0.93;0.80;;;19.90;86.60;;;;;;4973964;28;20207;-64
2022/04/06 12:37:51;;;;;;;0.83;0.60;;;19.80;87.00;;;;;;4974096;28;20180;-64
2022/04/06 12:40:24;;;;;;;0.40;0.40;;;19.80;86.00;;;;;;4974234;28;20180;-65
2022/04/06 12:42:50;;;;;;;0.50;0.50;;;19.90;85.30;;;;;;4974343;28;20250;-64
2022/04/06 12:45:18;;;;;;;0.40;0.40;;;19.80;83.20;;;;;;4973845;28;20447;-65
2022/04/06 12:47:45;;;;;;;0.63;0.63;;;19.70;83.00;;;;;;4972663;28;20420;-66
2022/04/06 12:50:19;;;;;;;0.40;0.40;;;19.50;81.60;;;;;;4972142;28;20393;-67
2022/04/06 12:53:00;;;;;;;0.40;0.40;;;19.30;82.30;;;;;;4971822;28;20937;-64
2022/04/06 12:55:26;;;;;;;0.40;0.40;;;19.10;85.70;;;;;;4972006;28;20444;-66
2022/04/06 12:57:52;;;;;;;0.30;0.30;;;19.10;85.30;;;;;;4972470;28;20499;-67